createdAt,value
2022-12-12T00:00:11.158Z,-2.00
2022-12-12T00:02:58.732Z,-2.10
2022-12-12T00:05:46.354Z,-2.30
2022-12-12T00:08:33.825Z,-2.30
2022-12-12T00:11:23.714Z,-2.50
2022-12-12T00:14:11.242Z,-2.60
2022-12-12T00:16:58.699Z,-2.70
2022-12-12T00:19:46.134Z,-2.80
2022-12-12T00:22:33.628Z,-2.90
2022-12-12T00:25:21.175Z,-3.00
2022-12-12T00:28:08.705Z,-3.00
2022-12-12T00:30:57.245Z,-3.10
2022-12-12T00:33:48.239Z,-3.10
2022-12-12T00:36:35.710Z,-3.10
2022-12-12T00:39:23.880Z,-3.20
2022-12-12T00:42:11.445Z,-3.20
2022-12-12T00:44:59.067Z,-3.20
2022-12-12T00:47:46.559Z,-3.20
2022-12-12T00:50:35.697Z,-3.30
2022-12-12T00:53:23.699Z,-3.40
2022-12-12T00:56:11.245Z,-3.40
2022-12-12T00:58:59.129Z,-3.50
2022-12-12T01:01:47.294Z,-3.60
2022-12-12T01:04:35.071Z,-3.60
2022-12-12T01:07:22.575Z,-3.70
2022-12-12T01:10:10.610Z,-3.70
2022-12-12T01:12:58.120Z,-3.80
2022-12-12T01:15:45.625Z,-3.80
2022-12-12T01:18:34.034Z,-3.90
2022-12-12T01:21:22.420Z,-3.90
2022-12-12T01:24:09.876Z,-3.90
2022-12-12T01:26:57.350Z,-4.00
2022-12-12T01:29:44.839Z,-4.00
2022-12-12T01:32:32.335Z,-4.00
2022-12-12T01:35:19.934Z,-3.90
2022-12-12T01:38:07.405Z,-3.90
2022-12-12T01:40:55.342Z,-3.90
2022-12-12T01:43:44.180Z,-3.80
2022-12-12T01:46:41.184Z,-3.70
2022-12-12T01:49:29.070Z,-3.60
2022-12-12T01:52:25.123Z,-3.50
2022-12-12T01:55:21.220Z,-3.40
2022-12-12T01:58:09.112Z,-3.40
2022-12-12T02:00:56.734Z,-3.30
2022-12-12T02:03:46.826Z,-3.20
2022-12-12T02:06:35.126Z,-3.20
2022-12-12T02:09:25.821Z,-3.10
2022-12-12T02:12:15.404Z,-3.10
2022-12-12T02:15:03.174Z,-3.10
2022-12-12T02:18:32.100Z,-3.00
2022-12-12T02:21:37.600Z,-3.00
2022-12-12T02:24:40.455Z,-2.90
2022-12-12T02:28:24.951Z,-3.00
2022-12-12T02:31:43.521Z,-3.00
2022-12-12T02:35:31.316Z,-3.00
2022-12-12T02:38:40.451Z,-3.00
2022-12-12T02:41:43.935Z,-3.00
2022-12-12T02:44:49.183Z,-2.90
2022-12-12T02:48:05.401Z,-2.90
2022-12-12T02:50:58.227Z,-2.80
2022-12-12T02:53:45.765Z,-2.80
2022-12-12T02:56:49.824Z,-2.80
2022-12-12T02:59:42.496Z,-2.70
2022-12-12T03:02:35.959Z,-2.80
2022-12-12T03:05:51.056Z,-2.70
2022-12-12T03:09:07.685Z,-2.80
2022-12-12T03:12:14.795Z,-2.70
2022-12-12T03:15:18.440Z,-2.70
2022-12-12T03:18:20.214Z,-2.80
2022-12-12T03:21:52.824Z,-2.80
2022-12-12T03:25:20.350Z,-2.80
2022-12-12T03:28:34.919Z,-2.80
2022-12-12T03:31:34.945Z,-2.90
2022-12-12T03:34:30.577Z,-2.90
2022-12-12T03:37:35.583Z,-2.90
2022-12-12T03:40:32.430Z,-2.90
2022-12-12T03:43:50.140Z,-2.90
2022-12-12T03:46:51.320Z,-2.90
2022-12-12T03:50:17.116Z,-2.80
2022-12-12T03:53:17.309Z,-2.80
2022-12-12T03:56:15.335Z,-2.80
2022-12-12T03:59:02.760Z,-2.80
2022-12-12T04:02:08.537Z,-2.90
2022-12-12T04:05:03.790Z,-3.00
2022-12-12T04:08:10.222Z,-3.10
2022-12-12T04:11:33.160Z,-3.20
2022-12-12T04:14:46.895Z,-3.20
2022-12-12T04:17:59.304Z,-3.20
2022-12-12T04:21:20.430Z,-3.20
2022-12-12T04:24:20.719Z,-3.10
2022-12-12T04:27:28.109Z,-3.00
2022-12-12T04:30:17.280Z,-3.00
2022-12-12T04:33:18.565Z,-3.10
2022-12-12T04:36:11.807Z,-3.10
2022-12-12T04:39:02.645Z,-3.10
2022-12-12T04:41:54.201Z,-3.00
2022-12-12T04:44:45.072Z,-2.90
2022-12-12T04:47:35.470Z,-2.90
2022-12-12T04:50:28.193Z,-2.80
2022-12-12T04:53:20.922Z,-2.80
2022-12-12T04:56:14.040Z,-2.80
2022-12-12T04:59:03.621Z,-2.90
2022-12-12T05:02:23.505Z,-2.90
2022-12-12T05:05:26.735Z,-2.90
2022-12-12T05:08:32.500Z,-2.90
2022-12-12T05:11:22.365Z,-3.00
2022-12-12T05:14:11.499Z,-3.00
2022-12-12T05:17:08.774Z,-3.00
2022-12-12T05:19:57.370Z,-3.10
2022-12-12T05:22:44.926Z,-3.10
2022-12-12T05:25:33.194Z,-3.10
2022-12-12T05:28:20.754Z,-3.20
2022-12-12T05:31:08.628Z,-3.20
2022-12-12T05:33:56.229Z,-3.20
2022-12-12T05:36:43.986Z,-3.30
2022-12-12T05:39:31.540Z,-3.40
2022-12-12T05:42:19.095Z,-3.40
2022-12-12T05:45:09.236Z,-3.40
2022-12-12T05:47:58.167Z,-3.50
2022-12-12T05:50:45.819Z,-3.50
2022-12-12T05:53:39.124Z,-3.50
2022-12-12T05:56:29.942Z,-3.50
2022-12-12T05:59:17.510Z,-3.50
2022-12-12T06:02:05.145Z,-3.50
2022-12-12T06:04:52.689Z,-3.50
2022-12-12T06:07:40.243Z,-3.50
2022-12-12T06:10:27.876Z,-3.50
2022-12-12T06:13:15.375Z,-3.50
2022-12-12T06:16:12.890Z,-3.50
2022-12-12T06:19:00.531Z,-3.60
2022-12-12T06:21:48.389Z,-3.50
2022-12-12T06:24:36.002Z,-3.50
2022-12-12T06:27:23.569Z,-3.50
2022-12-12T06:30:11.809Z,-3.40
2022-12-12T06:32:59.342Z,-3.50
2022-12-12T06:36:01.188Z,-3.40
2022-12-12T06:38:48.721Z,-3.40
2022-12-12T06:41:36.310Z,-3.40
2022-12-12T06:44:23.894Z,-3.30
2022-12-12T06:47:11.489Z,-3.30
2022-12-12T06:49:59.082Z,-3.30
2022-12-12T06:52:46.683Z,-3.30
2022-12-12T06:55:34.214Z,-3.30
2022-12-12T06:58:22.381Z,-3.40
2022-12-12T07:01:13.907Z,-3.40
2022-12-12T07:04:01.569Z,-3.30
2022-12-12T07:06:49.147Z,-3.30
2022-12-12T07:09:36.815Z,-3.30
2022-12-12T07:12:24.359Z,-3.30
2022-12-12T07:15:13.401Z,-3.30
2022-12-12T07:18:01.116Z,-3.30
2022-12-12T07:20:48.734Z,-3.30
2022-12-12T07:23:37.410Z,-3.20
2022-12-12T07:26:25.853Z,-3.20
2022-12-12T07:29:13.339Z,-3.20
2022-12-12T07:32:00.917Z,-3.10
2022-12-12T07:34:48.471Z,-3.10
2022-12-12T07:37:36.441Z,-3.10
2022-12-12T07:40:24.447Z,-3.10
2022-12-12T07:43:12.089Z,-3.20
2022-12-12T07:45:59.760Z,-3.10
2022-12-12T07:48:48.164Z,-3.10
2022-12-12T07:51:36.455Z,-3.10
2022-12-12T07:54:24.004Z,-3.10
2022-12-12T07:57:11.597Z,-3.00
2022-12-12T07:59:59.626Z,-2.90
2022-12-12T08:02:47.152Z,-2.90
2022-12-12T08:05:34.651Z,-2.90
2022-12-12T08:08:22.340Z,-2.80
2022-12-12T08:11:13.794Z,-2.80
2022-12-12T08:14:01.559Z,-2.70
2022-12-12T08:16:49.055Z,-2.70
2022-12-12T08:19:36.680Z,-2.60
2022-12-12T08:22:24.211Z,-2.60
2022-12-12T08:25:12.108Z,-2.60
2022-12-12T08:27:59.940Z,-2.50
2022-12-12T08:30:51.625Z,-2.40
2022-12-12T08:33:39.942Z,-2.40
2022-12-12T08:36:31.589Z,-2.30
2022-12-12T08:39:19.593Z,-2.20
2022-12-12T08:42:07.135Z,-2.20
2022-12-12T08:44:54.705Z,-2.10
2022-12-12T08:47:42.402Z,-2.20
2022-12-12T08:50:30.087Z,-2.10
2022-12-12T08:53:17.665Z,-2.00
2022-12-12T08:56:05.766Z,-1.90
2022-12-12T08:58:53.819Z,-1.80
2022-12-12T09:01:41.650Z,-1.70
2022-12-12T09:04:29.446Z,-1.50
2022-12-12T09:07:16.997Z,-1.40
2022-12-12T09:10:05.364Z,-1.30
2022-12-12T09:12:52.980Z,-1.20
2022-12-12T09:15:40.520Z,-1.30
2022-12-12T09:18:28.717Z,-1.20
2022-12-12T09:21:17.579Z,-1.10
2022-12-12T09:24:05.603Z,-1.00
2022-12-12T09:26:53.162Z,-1.00
2022-12-12T09:29:40.685Z,-0.90
2022-12-12T09:32:28.330Z,-0.90
2022-12-12T09:35:16.386Z,-1.00
2022-12-12T09:38:08.247Z,-1.00
2022-12-12T09:41:24.128Z,-1.10
2022-12-12T09:44:18.834Z,-1.10
2022-12-12T09:47:17.021Z,-1.10
2022-12-12T09:50:33.130Z,-1.00
2022-12-12T09:53:23.077Z,-0.90
2022-12-12T09:56:36.232Z,-0.70
2022-12-12T09:59:35.960Z,-0.50
2022-12-12T10:03:15.646Z,-0.40
2022-12-12T10:10:03.454Z,-0.60
2022-12-12T10:12:53.185Z,-0.70
2022-12-12T10:15:53.100Z,-0.60
2022-12-12T10:18:50.531Z,-0.60
2022-12-12T10:21:41.052Z,-0.60
2022-12-12T10:24:37.155Z,-0.50
2022-12-12T10:27:25.315Z,-0.50
2022-12-12T10:30:20.993Z,-0.40
2022-12-12T10:33:45.489Z,-0.40
2022-12-12T10:36:57.277Z,-0.40
2022-12-12T10:40:15.285Z,-0.40
2022-12-12T10:43:44.975Z,-0.30
2022-12-12T10:47:02.279Z,-0.30
2022-12-12T10:50:01.600Z,-0.30
2022-12-12T10:52:49.986Z,-0.40
2022-12-12T10:55:43.992Z,-0.60
2022-12-12T10:59:01.426Z,-0.70
2022-12-12T11:02:10.187Z,-0.80
2022-12-12T11:05:11.434Z,-0.80
2022-12-12T11:08:07.552Z,-0.60
2022-12-12T11:11:08.096Z,-0.40
2022-12-12T11:14:04.530Z,-0.30
2022-12-12T11:16:52.113Z,-0.20
2022-12-12T11:19:39.785Z,-0.10
2022-12-12T11:22:31.594Z,-0.10
2022-12-12T11:25:31.715Z,-0.10
2022-12-12T11:28:24.607Z,0.10
2022-12-12T11:31:19.036Z,0.10
2022-12-12T11:34:07.297Z,-0.10
2022-12-12T11:36:59.107Z,-0.10
2022-12-12T11:39:52.053Z,-0.10
2022-12-12T11:42:40.046Z,0.00
2022-12-12T11:45:27.616Z,-0.10
2022-12-12T11:48:47.048Z,-0.10
2022-12-12T11:51:44.247Z,-0.10
2022-12-12T11:54:32.514Z,-0.10
2022-12-12T11:57:51.630Z,-0.20
2022-12-12T12:01:10.322Z,-0.20
2022-12-12T12:04:27.900Z,-0.40
2022-12-12T12:07:24.186Z,-0.40
2022-12-12T12:10:43.621Z,-0.40
2022-12-12T12:14:21.704Z,-0.50
2022-12-12T12:17:25.581Z,-0.70
2022-12-12T12:20:50.546Z,-0.90
2022-12-12T12:23:56.614Z,-0.90
2022-12-12T12:26:54.293Z,-1.00
2022-12-12T12:30:09.779Z,-1.00
2022-12-12T12:33:15.381Z,-0.90
2022-12-12T12:36:37.662Z,-0.70
2022-12-12T12:40:18.385Z,-0.80
2022-12-12T12:43:24.935Z,-0.80
2022-12-12T12:46:41.806Z,-1.00
2022-12-12T12:49:42.174Z,-1.10
2022-12-12T12:52:40.776Z,-1.10
2022-12-12T12:55:37.536Z,-1.20
2022-12-12T12:58:47.616Z,-1.30
2022-12-12T13:01:58.008Z,-1.30
2022-12-12T13:05:07.740Z,-1.30
2022-12-12T13:08:14.610Z,-1.30
2022-12-12T13:11:18.017Z,-1.20
2022-12-12T13:14:23.312Z,-1.20
2022-12-12T13:17:23.615Z,-1.20
2022-12-12T13:20:22.025Z,-1.10
2022-12-12T13:23:37.935Z,-1.20
2022-12-12T13:26:48.275Z,-1.10
2022-12-12T13:29:55.982Z,-1.20
2022-12-12T13:32:58.939Z,-1.20
2022-12-12T13:35:56.002Z,-1.20
2022-12-12T13:38:56.691Z,-1.40
2022-12-12T13:42:07.974Z,-1.40
2022-12-12T13:44:55.620Z,-1.40
2022-12-12T13:47:50.949Z,-1.40
2022-12-12T13:50:38.540Z,-1.50
2022-12-12T13:53:26.134Z,-1.50
2022-12-12T13:57:05.176Z,-1.60
2022-12-12T13:59:59.152Z,-1.60
2022-12-12T14:03:01.291Z,-1.70
2022-12-12T14:05:53.561Z,-1.70
2022-12-12T14:08:51.559Z,-1.70
2022-12-12T14:11:39.236Z,-1.70
2022-12-12T14:14:26.819Z,-1.80
2022-12-12T14:17:24.262Z,-1.80
2022-12-12T14:20:37.006Z,-1.80
2022-12-12T14:23:27.691Z,-1.90
2022-12-12T14:26:27.627Z,-1.90
2022-12-12T14:29:18.159Z,-1.90
2022-12-12T14:32:11.829Z,-2.10
2022-12-12T14:35:32.549Z,-2.20
2022-12-12T14:39:09.545Z,-2.30
2022-12-12T14:41:58.739Z,-2.40
2022-12-12T14:44:50.638Z,-2.50
2022-12-12T14:47:38.586Z,-2.60
2022-12-12T14:50:26.176Z,-2.70
2022-12-12T14:53:32.215Z,-2.80
2022-12-12T14:56:39.846Z,-2.80
2022-12-12T14:59:37.925Z,-2.90
2022-12-12T15:02:52.022Z,-3.00
2022-12-12T15:05:39.730Z,-3.00
2022-12-12T15:08:27.329Z,-3.00
2022-12-12T15:11:17.085Z,-3.00
2022-12-12T15:14:05.278Z,-3.00
2022-12-12T15:17:08.151Z,-3.10
2022-12-12T15:20:04.213Z,-3.10
2022-12-12T15:23:04.780Z,-3.10
2022-12-12T15:25:56.603Z,-3.20
2022-12-12T15:28:49.151Z,-3.20
2022-12-12T15:31:36.841Z,-3.30
2022-12-12T15:34:41.695Z,-3.30
2022-12-12T15:37:36.563Z,-3.30
2022-12-12T15:40:32.456Z,-3.40
2022-12-12T15:43:25.251Z,-3.40
2022-12-12T15:46:16.135Z,-3.50
2022-12-12T15:49:03.958Z,-3.60
2022-12-12T15:51:51.541Z,-3.70
2022-12-12T15:54:47.860Z,-3.80
2022-12-12T15:57:48.733Z,-3.90
2022-12-12T16:00:40.559Z,-3.90
2022-12-12T16:03:28.115Z,-4.00
2022-12-12T16:06:17.869Z,-4.00
2022-12-12T16:09:11.624Z,-4.00
2022-12-12T16:12:00.050Z,-4.10
2022-12-12T16:14:47.711Z,-4.00
2022-12-12T16:17:36.256Z,-4.10
2022-12-12T16:20:30.165Z,-4.10
2022-12-12T16:23:33.868Z,-4.10
2022-12-12T16:26:21.437Z,-4.00
2022-12-12T16:29:09.041Z,-4.00
2022-12-12T16:31:57.913Z,-4.00
2022-12-12T16:34:45.620Z,-4.00
2022-12-12T16:37:33.685Z,-4.10
2022-12-12T16:40:22.166Z,-4.10
2022-12-12T16:43:13.765Z,-4.10
2022-12-12T16:46:01.486Z,-4.20
2022-12-12T16:48:49.743Z,-4.30
2022-12-12T16:51:41.488Z,-4.40
2022-12-12T16:54:29.001Z,-4.50
2022-12-12T16:57:16.789Z,-4.70
2022-12-12T17:00:05.360Z,-4.70
2022-12-12T17:02:52.911Z,-4.90
2022-12-12T17:05:41.456Z,-4.80
2022-12-12T17:08:29.376Z,-4.90
2022-12-12T17:11:17.111Z,-5.00
2022-12-12T17:14:05.542Z,-5.00
2022-12-12T17:16:56.289Z,-5.10
2022-12-12T17:19:43.901Z,-5.10
2022-12-12T17:22:31.453Z,-5.20
2022-12-12T17:25:21.669Z,-5.30
2022-12-12T17:28:20.616Z,-5.40
2022-12-12T17:31:09.758Z,-5.40
2022-12-12T17:33:57.625Z,-5.40
2022-12-12T17:36:45.393Z,-5.40
2022-12-12T17:39:33.011Z,-5.40
2022-12-12T17:42:20.681Z,-5.20
2022-12-12T17:45:10.422Z,-5.20
2022-12-12T17:47:58.664Z,-5.30
2022-12-12T17:50:55.351Z,-5.30
2022-12-12T17:53:43.504Z,-5.30
2022-12-12T17:56:31.184Z,-5.40
2022-12-12T17:59:18.828Z,-5.50
2022-12-12T18:02:08.592Z,-5.50
2022-12-12T18:04:56.306Z,-5.60
2022-12-12T18:07:43.854Z,-5.60
2022-12-12T18:10:31.477Z,-5.60
2022-12-12T18:13:18.979Z,-5.50
2022-12-12T18:16:12.941Z,-5.50
2022-12-12T18:19:02.010Z,-5.50
2022-12-12T18:22:05.328Z,-5.50
2022-12-12T18:24:52.830Z,-5.60
2022-12-12T18:27:40.542Z,-5.60
2022-12-12T18:30:28.141Z,-5.70
2022-12-12T18:33:15.736Z,-5.70
2022-12-12T18:36:12.205Z,-5.70
2022-12-12T18:39:03.336Z,-5.80
2022-12-12T18:41:52.221Z,-5.80
2022-12-12T18:44:39.734Z,-5.90
2022-12-12T18:47:27.254Z,-6.00
2022-12-12T18:50:14.967Z,-6.00
2022-12-12T18:53:02.884Z,-6.10
2022-12-12T18:55:50.505Z,-6.20
2022-12-12T18:58:38.361Z,-6.20
2022-12-12T19:01:31.292Z,-6.20
2022-12-12T19:04:23.213Z,-6.20
2022-12-12T19:07:12.010Z,-6.20
2022-12-12T19:09:59.520Z,-6.30
2022-12-12T19:12:47.082Z,-6.30
2022-12-12T19:15:35.073Z,-6.20
2022-12-12T19:18:22.712Z,-6.30
2022-12-12T19:21:23.881Z,-6.40
2022-12-12T19:24:14.884Z,-6.40
2022-12-12T19:27:02.445Z,-6.50
2022-12-12T19:29:49.981Z,-6.60
2022-12-12T19:32:37.654Z,-6.60
2022-12-12T19:35:25.338Z,-6.60
2022-12-12T19:38:12.826Z,-6.60
2022-12-12T19:41:10.546Z,-6.70
2022-12-12T19:44:04.623Z,-6.70
2022-12-12T19:46:52.198Z,-6.80
2022-12-12T19:49:40.213Z,-6.80
2022-12-12T19:52:28.399Z,-6.80
2022-12-12T19:55:15.940Z,-6.90
2022-12-12T19:58:04.520Z,-6.90
2022-12-12T20:00:52.090Z,-6.90
2022-12-12T20:03:40.543Z,-6.90
2022-12-12T20:06:29.050Z,-7.00
2022-12-12T20:09:29.049Z,-7.00
2022-12-12T20:12:16.844Z,-7.00
2022-12-12T20:15:04.818Z,-7.00
2022-12-12T20:17:52.479Z,-7.00
2022-12-12T20:20:40.176Z,-7.10
2022-12-12T20:23:29.295Z,-7.10
2022-12-12T20:26:20.819Z,-7.20
2022-12-12T20:29:11.360Z,-7.20
2022-12-12T20:32:00.181Z,-7.20
2022-12-12T20:34:48.506Z,-7.20
2022-12-12T20:37:36.136Z,-7.30
2022-12-12T20:40:23.989Z,-7.30
2022-12-12T20:43:12.021Z,-7.30
2022-12-12T20:46:00.231Z,-7.20
2022-12-12T20:48:49.912Z,-7.20
2022-12-12T20:54:45.495Z,-7.30
2022-12-12T20:57:33.216Z,-7.30
2022-12-12T21:00:21.070Z,-7.20
2022-12-12T21:03:09.082Z,-7.30
2022-12-12T21:05:56.851Z,-7.30
2022-12-12T21:08:48.898Z,-7.40
2022-12-12T21:11:38.727Z,-7.40
2022-12-12T21:14:30.788Z,-7.40
2022-12-12T21:17:18.669Z,-7.50
2022-12-12T21:20:07.240Z,-7.50
2022-12-12T21:22:54.815Z,-7.50
2022-12-12T21:25:42.376Z,-7.50
2022-12-12T21:28:30.095Z,-7.60
2022-12-12T21:31:23.602Z,-7.60
2022-12-12T21:34:12.215Z,-7.60
2022-12-12T21:36:59.733Z,-7.70
2022-12-12T21:39:50.849Z,-7.70
2022-12-12T21:42:38.518Z,-7.70
2022-12-12T21:45:26.147Z,-7.70
2022-12-12T21:48:13.690Z,-7.70
2022-12-12T21:51:02.989Z,-7.70
2022-12-12T21:53:50.542Z,-7.70
2022-12-12T21:56:39.160Z,-7.70
2022-12-12T21:59:27.644Z,-7.80
2022-12-12T22:02:15.186Z,-7.80
2022-12-12T22:05:02.615Z,-7.90
2022-12-12T22:07:50.221Z,-7.90
2022-12-12T22:10:38.422Z,-7.90
2022-12-12T22:13:25.964Z,-7.90
2022-12-12T22:16:19.803Z,-8.00
2022-12-12T22:19:12.228Z,-8.00
2022-12-12T22:21:59.816Z,-8.00
2022-12-12T22:24:47.317Z,-8.00
2022-12-12T22:27:36.043Z,-8.00
2022-12-12T22:30:23.553Z,-8.00
2022-12-12T22:33:11.067Z,-8.10
2022-12-12T22:36:08.120Z,-8.00
2022-12-12T22:38:56.844Z,-8.10
2022-12-12T22:41:44.652Z,-8.10
2022-12-12T22:44:32.117Z,-8.10
2022-12-12T22:47:20.100Z,-8.10
2022-12-12T22:50:08.330Z,-8.10
2022-12-12T22:52:55.861Z,-8.10
2022-12-12T22:55:43.311Z,-8.20
2022-12-12T22:58:33.034Z,-8.20
2022-12-12T23:01:24.436Z,-8.20
2022-12-12T23:04:15.424Z,-8.30
2022-12-12T23:07:03.046Z,-8.30
2022-12-12T23:09:53.734Z,-8.30
2022-12-12T23:12:41.278Z,-8.40
2022-12-12T23:15:28.939Z,-8.30
2022-12-12T23:18:17.189Z,-8.40
2022-12-12T23:21:10.945Z,-8.50
2022-12-12T23:24:01.502Z,-8.50
2022-12-12T23:26:52.140Z,-8.50
2022-12-12T23:29:39.827Z,-8.40
2022-12-12T23:32:27.289Z,-8.50
2022-12-12T23:35:14.985Z,-8.60
2022-12-12T23:38:02.584Z,-8.60
2022-12-12T23:40:50.120Z,-8.60
2022-12-12T23:43:38.166Z,-8.60
2022-12-12T23:46:29.625Z,-8.70
2022-12-12T23:49:23.080Z,-8.70
2022-12-12T23:52:11.535Z,-8.70
2022-12-12T23:54:59.001Z,-8.80
2022-12-12T23:57:46.536Z,-8.90
